sensor_id;sensor_type;location;lat;lon;timestamp;P1;durP1;ratioP1;P2;durP2;ratioP2
42832;SDS011;64089;51.478;5.692;2022-12-11T00:01:36;57.50;;;17.33;;
42832;SDS011;64089;51.478;5.692;2022-12-11T00:04:02;63.22;;;15.95;;
42832;SDS011;64089;51.478;5.692;2022-12-11T00:06:27;61.97;;;17.67;;
42832;SDS011;64089;51.478;5.692;2022-12-11T00:08:53;61.85;;;17.08;;
42832;SDS011;64089;51.478;5.692;2022-12-11T00:11:20;53.88;;;14.95;;
42832;SDS011;64089;51.478;5.692;2022-12-11T00:13:46;60.75;;;15.98;;
42832;SDS011;64089;51.478;5.692;2022-12-11T00:16:12;67.35;;;17.90;;
42832;SDS011;64089;51.478;5.692;2022-12-11T00:18:38;61.60;;;15.68;;
42832;SDS011;64089;51.478;5.692;2022-12-11T00:21:05;57.17;;;17.08;;
42832;SDS011;64089;51.478;5.692;2022-12-11T00:23:33;60.90;;;16.73;;
42832;SDS011;64089;51.478;5.692;2022-12-11T00:26:00;46.92;;;14.43;;
42832;SDS011;64089;51.478;5.692;2022-12-11T00:28:29;52.22;;;17.23;;
42832;SDS011;64089;51.478;5.692;2022-12-11T00:30:54;52.97;;;15.43;;
42832;SDS011;64089;51.478;5.692;2022-12-11T00:33:20;62.75;;;17.88;;
42832;SDS011;64089;51.478;5.692;2022-12-11T00:35:46;70.05;;;18.35;;
42832;SDS011;64089;51.478;5.692;2022-12-11T00:38:15;53.72;;;15.60;;
42832;SDS011;64089;51.478;5.692;2022-12-11T00:40:42;52.92;;;15.23;;
42832;SDS011;64089;51.478;5.692;2022-12-11T00:43:08;55.95;;;16.80;;
42832;SDS011;64089;51.478;5.692;2022-12-11T00:45:35;53.83;;;16.67;;
42832;SDS011;64089;51.478;5.692;2022-12-11T00:48:02;64.25;;;16.80;;
42832;SDS011;64089;51.478;5.692;2022-12-11T00:50:28;55.80;;;17.40;;
42832;SDS011;64089;51.478;5.692;2022-12-11T00:52:53;67.85;;;16.70;;
42832;SDS011;64089;51.478;5.692;2022-12-11T00:55:19;65.45;;;17.23;;
42832;SDS011;64089;51.478;5.692;2022-12-11T00:57:44;66.40;;;18.00;;
42832;SDS011;64089;51.478;5.692;2022-12-11T01:00:10;74.38;;;19.02;;
42832;SDS011;64089;51.478;5.692;2022-12-11T01:02:37;63.13;;;18.15;;
42832;SDS011;64089;51.478;5.692;2022-12-11T01:05:02;75.57;;;18.88;;
42832;SDS011;64089;51.478;5.692;2022-12-11T01:07:28;67.43;;;18.00;;
42832;SDS011;64089;51.478;5.692;2022-12-11T01:09:54;56.88;;;18.08;;
42832;SDS011;64089;51.478;5.692;2022-12-11T01:12:38;59.13;;;17.05;;
42832;SDS011;64089;51.478;5.692;2022-12-11T01:15:04;57.78;;;18.08;;
42832;SDS011;64089;51.478;5.692;2022-12-11T01:17:30;65.55;;;17.75;;
42832;SDS011;64089;51.478;5.692;2022-12-11T01:19:56;90.63;;;20.08;;
42832;SDS011;64089;51.478;5.692;2022-12-11T01:22:21;59.50;;;17.45;;
42832;SDS011;64089;51.478;5.692;2022-12-11T01:24:47;58.78;;;17.88;;
42832;SDS011;64089;51.478;5.692;2022-12-11T01:27:13;71.97;;;16.83;;
42832;SDS011;64089;51.478;5.692;2022-12-11T01:29:39;66.35;;;18.80;;
42832;SDS011;64089;51.478;5.692;2022-12-11T01:32:04;63.47;;;18.92;;
42832;SDS011;64089;51.478;5.692;2022-12-11T01:34:30;57.55;;;17.05;;
42832;SDS011;64089;51.478;5.692;2022-12-11T01:36:57;53.00;;;16.67;;
42832;SDS011;64089;51.478;5.692;2022-12-11T01:39:22;63.15;;;19.48;;
42832;SDS011;64089;51.478;5.692;2022-12-11T01:41:48;56.70;;;17.63;;
42832;SDS011;64089;51.478;5.692;2022-12-11T01:46:39;59.33;;;17.27;;
42832;SDS011;64089;51.478;5.692;2022-12-11T01:49:10;56.72;;;15.55;;
42832;SDS011;64089;51.478;5.692;2022-12-11T01:51:51;55.78;;;17.17;;
42832;SDS011;64089;51.478;5.692;2022-12-11T01:54:29;67.45;;;16.50;;
42832;SDS011;64089;51.478;5.692;2022-12-11T01:56:57;44.38;;;15.88;;
42832;SDS011;64089;51.478;5.692;2022-12-11T01:59:26;50.03;;;15.20;;
42832;SDS011;64089;51.478;5.692;2022-12-11T02:02:01;52.00;;;16.05;;
42832;SDS011;64089;51.478;5.692;2022-12-11T02:04:32;62.05;;;16.60;;
42832;SDS011;64089;51.478;5.692;2022-12-11T02:07:00;52.13;;;15.15;;
42832;SDS011;64089;51.478;5.692;2022-12-11T02:09:26;52.33;;;15.73;;
42832;SDS011;64089;51.478;5.692;2022-12-11T02:14:24;58.10;;;17.70;;
42832;SDS011;64089;51.478;5.692;2022-12-11T02:16:55;47.20;;;16.63;;
42832;SDS011;64089;51.478;5.692;2022-12-11T02:19:43;50.45;;;15.52;;
42832;SDS011;64089;51.478;5.692;2022-12-11T02:22:27;45.90;;;14.85;;
42832;SDS011;64089;51.478;5.692;2022-12-11T02:27:43;49.70;;;15.88;;
42832;SDS011;64089;51.478;5.692;2022-12-11T02:30:13;53.22;;;16.45;;
42832;SDS011;64089;51.478;5.692;2022-12-11T02:32:56;45.42;;;14.52;;
42832;SDS011;64089;51.478;5.692;2022-12-11T02:37:56;41.50;;;13.98;;
42832;SDS011;64089;51.478;5.692;2022-12-11T02:40:28;51.78;;;16.00;;
42832;SDS011;64089;51.478;5.692;2022-12-11T02:42:57;53.13;;;14.90;;
42832;SDS011;64089;51.478;5.692;2022-12-11T02:45:25;46.63;;;14.98;;
42832;SDS011;64089;51.478;5.692;2022-12-11T02:47:52;45.00;;;14.68;;
42832;SDS011;64089;51.478;5.692;2022-12-11T02:50:20;48.10;;;16.65;;
42832;SDS011;64089;51.478;5.692;2022-12-11T02:52:47;52.85;;;15.82;;
42832;SDS011;64089;51.478;5.692;2022-12-11T02:55:16;39.65;;;14.43;;
42832;SDS011;64089;51.478;5.692;2022-12-11T02:57:48;41.97;;;14.93;;
42832;SDS011;64089;51.478;5.692;2022-12-11T03:00:19;56.00;;;15.85;;
42832;SDS011;64089;51.478;5.692;2022-12-11T03:02:45;45.10;;;15.55;;
42832;SDS011;64089;51.478;5.692;2022-12-11T03:05:11;43.38;;;14.82;;
42832;SDS011;64089;51.478;5.692;2022-12-11T03:07:38;46.38;;;16.08;;
42832;SDS011;64089;51.478;5.692;2022-12-11T03:10:06;37.67;;;13.77;;
42832;SDS011;64089;51.478;5.692;2022-12-11T03:12:35;40.38;;;13.52;;
42832;SDS011;64089;51.478;5.692;2022-12-11T03:15:04;47.65;;;13.88;;
42832;SDS011;64089;51.478;5.692;2022-12-11T03:20:13;33.42;;;12.77;;
42832;SDS011;64089;51.478;5.692;2022-12-11T03:22:55;35.42;;;13.25;;
42832;SDS011;64089;51.478;5.692;2022-12-11T03:25:38;37.38;;;13.55;;
42832;SDS011;64089;51.478;5.692;2022-12-11T03:28:17;42.42;;;13.40;;
42832;SDS011;64089;51.478;5.692;2022-12-11T03:33:22;41.47;;;13.60;;
42832;SDS011;64089;51.478;5.692;2022-12-11T03:35:55;35.15;;;12.27;;
42832;SDS011;64089;51.478;5.692;2022-12-11T03:38:29;33.83;;;13.68;;
42832;SDS011;64089;51.478;5.692;2022-12-11T03:41:00;40.83;;;14.07;;
42832;SDS011;64089;51.478;5.692;2022-12-11T03:43:28;35.17;;;12.38;;
42832;SDS011;64089;51.478;5.692;2022-12-11T03:45:56;44.33;;;13.57;;
42832;SDS011;64089;51.478;5.692;2022-12-11T03:48:24;50.72;;;13.95;;
42832;SDS011;64089;51.478;5.692;2022-12-11T03:50:54;40.53;;;14.27;;
42832;SDS011;64089;51.478;5.692;2022-12-11T03:53:21;38.08;;;11.80;;
42832;SDS011;64089;51.478;5.692;2022-12-11T03:55:47;36.25;;;13.25;;
42832;SDS011;64089;51.478;5.692;2022-12-11T03:58:15;50.55;;;13.25;;
42832;SDS011;64089;51.478;5.692;2022-12-11T04:00:41;38.70;;;13.50;;
42832;SDS011;64089;51.478;5.692;2022-12-11T04:03:07;46.35;;;11.93;;
42832;SDS011;64089;51.478;5.692;2022-12-11T04:05:42;30.98;;;10.95;;
42832;SDS011;64089;51.478;5.692;2022-12-11T04:08:13;32.38;;;12.65;;
42832;SDS011;64089;51.478;5.692;2022-12-11T04:10:39;35.40;;;12.18;;
42832;SDS011;64089;51.478;5.692;2022-12-11T04:13:06;30.10;;;11.23;;
42832;SDS011;64089;51.478;5.692;2022-12-11T04:15:32;29.33;;;11.13;;
42832;SDS011;64089;51.478;5.692;2022-12-11T04:17:59;36.20;;;11.90;;
42832;SDS011;64089;51.478;5.692;2022-12-11T04:20:43;33.22;;;10.85;;
42832;SDS011;64089;51.478;5.692;2022-12-11T04:23:27;38.78;;;11.18;;
42832;SDS011;64089;51.478;5.692;2022-12-11T04:26:13;28.33;;;10.85;;
42832;SDS011;64089;51.478;5.692;2022-12-11T04:28:41;34.65;;;11.60;;
42832;SDS011;64089;51.478;5.692;2022-12-11T04:31:12;31.75;;;10.73;;
42832;SDS011;64089;51.478;5.692;2022-12-11T04:33:39;36.03;;;12.05;;
42832;SDS011;64089;51.478;5.692;2022-12-11T04:36:05;37.65;;;12.10;;
42832;SDS011;64089;51.478;5.692;2022-12-11T04:38:32;34.75;;;11.20;;
42832;SDS011;64089;51.478;5.692;2022-12-11T04:41:16;34.05;;;11.30;;
42832;SDS011;64089;51.478;5.692;2022-12-11T04:43:45;33.63;;;12.27;;
42832;SDS011;64089;51.478;5.692;2022-12-11T04:46:15;33.40;;;10.40;;
42832;SDS011;64089;51.478;5.692;2022-12-11T04:48:43;26.13;;;10.40;;
42832;SDS011;64089;51.478;5.692;2022-12-11T04:51:09;26.33;;;9.60;;
42832;SDS011;64089;51.478;5.692;2022-12-11T04:53:35;26.35;;;9.07;;
42832;SDS011;64089;51.478;5.692;2022-12-11T04:56:05;25.08;;;9.88;;
42832;SDS011;64089;51.478;5.692;2022-12-11T04:58:32;31.70;;;10.02;;
42832;SDS011;64089;51.478;5.692;2022-12-11T05:00:58;24.40;;;10.13;;
42832;SDS011;64089;51.478;5.692;2022-12-11T05:03:23;28.10;;;9.18;;
42832;SDS011;64089;51.478;5.692;2022-12-11T05:05:49;25.27;;;9.73;;
42832;SDS011;64089;51.478;5.692;2022-12-11T05:08:16;20.40;;;8.23;;
42832;SDS011;64089;51.478;5.692;2022-12-11T05:10:55;22.73;;;9.73;;
42832;SDS011;64089;51.478;5.692;2022-12-11T05:13:25;21.27;;;7.82;;
42832;SDS011;64089;51.478;5.692;2022-12-11T05:15:52;22.63;;;9.45;;
42832;SDS011;64089;51.478;5.692;2022-12-11T05:18:18;36.03;;;9.85;;
42832;SDS011;64089;51.478;5.692;2022-12-11T05:20:43;20.88;;;8.63;;
42832;SDS011;64089;51.478;5.692;2022-12-11T05:23:09;23.95;;;9.43;;
42832;SDS011;64089;51.478;5.692;2022-12-11T05:25:35;18.77;;;8.02;;
42832;SDS011;64089;51.478;5.692;2022-12-11T05:28:00;19.25;;;8.05;;
42832;SDS011;64089;51.478;5.692;2022-12-11T05:30:26;26.38;;;8.75;;
42832;SDS011;64089;51.478;5.692;2022-12-11T05:32:51;19.13;;;8.32;;
42832;SDS011;64089;51.478;5.692;2022-12-11T05:35:17;19.23;;;9.07;;
42832;SDS011;64089;51.478;5.692;2022-12-11T05:37:43;18.25;;;8.75;;
42832;SDS011;64089;51.478;5.692;2022-12-11T05:40:09;17.58;;;8.27;;
42832;SDS011;64089;51.478;5.692;2022-12-11T05:42:36;22.35;;;9.63;;
42832;SDS011;64089;51.478;5.692;2022-12-11T05:45:02;22.58;;;9.07;;
42832;SDS011;64089;51.478;5.692;2022-12-11T05:47:29;18.58;;;9.02;;
42832;SDS011;64089;51.478;5.692;2022-12-11T05:49:55;19.77;;;8.70;;
42832;SDS011;64089;51.478;5.692;2022-12-11T05:52:21;19.88;;;8.70;;
42832;SDS011;64089;51.478;5.692;2022-12-11T05:54:47;26.00;;;8.98;;
42832;SDS011;64089;51.478;5.692;2022-12-11T05:57:14;19.15;;;7.95;;
42832;SDS011;64089;51.478;5.692;2022-12-11T05:59:40;21.58;;;8.10;;
42832;SDS011;64089;51.478;5.692;2022-12-11T06:02:06;23.15;;;9.23;;
42832;SDS011;64089;51.478;5.692;2022-12-11T06:04:32;20.58;;;8.80;;
42832;SDS011;64089;51.478;5.692;2022-12-11T06:06:57;19.10;;;8.05;;
42832;SDS011;64089;51.478;5.692;2022-12-11T06:09:26;18.77;;;8.95;;
42832;SDS011;64089;51.478;5.692;2022-12-11T06:11:51;21.85;;;8.07;;
42832;SDS011;64089;51.478;5.692;2022-12-11T06:14:20;19.70;;;6.75;;
42832;SDS011;64089;51.478;5.692;2022-12-11T06:16:45;17.25;;;8.52;;
42832;SDS011;64089;51.478;5.692;2022-12-11T06:19:14;21.13;;;8.10;;
42832;SDS011;64089;51.478;5.692;2022-12-11T06:21:42;20.02;;;8.32;;
42832;SDS011;64089;51.478;5.692;2022-12-11T06:24:09;23.00;;;8.25;;
42832;SDS011;64089;51.478;5.692;2022-12-11T06:26:35;18.88;;;7.93;;
42832;SDS011;64089;51.478;5.692;2022-12-11T06:29:01;19.17;;;8.23;;
42832;SDS011;64089;51.478;5.692;2022-12-11T06:31:27;19.52;;;8.48;;
42832;SDS011;64089;51.478;5.692;2022-12-11T06:33:53;20.45;;;7.65;;
42832;SDS011;64089;51.478;5.692;2022-12-11T06:36:20;22.65;;;8.75;;
42832;SDS011;64089;51.478;5.692;2022-12-11T06:38:47;22.13;;;9.38;;
42832;SDS011;64089;51.478;5.692;2022-12-11T06:41:13;22.95;;;9.15;;
42832;SDS011;64089;51.478;5.692;2022-12-11T06:43:39;19.70;;;8.50;;
42832;SDS011;64089;51.478;5.692;2022-12-11T06:46:08;21.58;;;9.40;;
42832;SDS011;64089;51.478;5.692;2022-12-11T06:48:35;22.13;;;8.48;;
42832;SDS011;64089;51.478;5.692;2022-12-11T06:51:05;24.67;;;9.07;;
42832;SDS011;64089;51.478;5.692;2022-12-11T06:53:33;21.35;;;9.02;;
42832;SDS011;64089;51.478;5.692;2022-12-11T06:56:03;17.08;;;8.68;;
42832;SDS011;64089;51.478;5.692;2022-12-11T06:58:29;19.20;;;7.13;;
42832;SDS011;64089;51.478;5.692;2022-12-11T07:00:55;17.35;;;8.25;;
42832;SDS011;64089;51.478;5.692;2022-12-11T07:03:21;19.95;;;9.00;;
42832;SDS011;64089;51.478;5.692;2022-12-11T07:05:46;22.02;;;9.15;;
42832;SDS011;64089;51.478;5.692;2022-12-11T07:08:12;20.23;;;7.93;;
42832;SDS011;64089;51.478;5.692;2022-12-11T07:10:38;20.88;;;8.80;;
42832;SDS011;64089;51.478;5.692;2022-12-11T07:13:04;24.52;;;9.05;;
42832;SDS011;64089;51.478;5.692;2022-12-11T07:15:30;22.88;;;9.55;;
42832;SDS011;64089;51.478;5.692;2022-12-11T07:17:55;22.17;;;9.27;;
42832;SDS011;64089;51.478;5.692;2022-12-11T07:20:21;24.20;;;9.57;;
42832;SDS011;64089;51.478;5.692;2022-12-11T07:22:46;18.95;;;8.35;;
42832;SDS011;64089;51.478;5.692;2022-12-11T07:25:13;23.02;;;9.25;;
42832;SDS011;64089;51.478;5.692;2022-12-11T07:27:39;16.80;;;8.05;;
42832;SDS011;64089;51.478;5.692;2022-12-11T07:30:05;23.45;;;9.52;;
42832;SDS011;64089;51.478;5.692;2022-12-11T07:32:31;26.38;;;9.63;;
42832;SDS011;64089;51.478;5.692;2022-12-11T07:34:57;21.85;;;9.50;;
42832;SDS011;64089;51.478;5.692;2022-12-11T07:37:23;22.23;;;8.85;;
42832;SDS011;64089;51.478;5.692;2022-12-11T07:39:49;19.17;;;8.38;;
42832;SDS011;64089;51.478;5.692;2022-12-11T07:42:14;22.70;;;9.63;;
42832;SDS011;64089;51.478;5.692;2022-12-11T07:44:40;20.27;;;8.88;;
42832;SDS011;64089;51.478;5.692;2022-12-11T07:47:06;22.13;;;8.95;;
42832;SDS011;64089;51.478;5.692;2022-12-11T07:49:31;23.73;;;9.25;;
42832;SDS011;64089;51.478;5.692;2022-12-11T07:51:57;24.92;;;9.57;;
42832;SDS011;64089;51.478;5.692;2022-12-11T07:54:23;19.98;;;8.93;;
42832;SDS011;64089;51.478;5.692;2022-12-11T07:56:48;23.20;;;8.80;;
42832;SDS011;64089;51.478;5.692;2022-12-11T07:59:14;20.33;;;8.73;;
42832;SDS011;64089;51.478;5.692;2022-12-11T08:01:40;23.55;;;10.68;;
42832;SDS011;64089;51.478;5.692;2022-12-11T08:04:07;21.02;;;9.65;;
42832;SDS011;64089;51.478;5.692;2022-12-11T08:06:36;16.95;;;8.65;;
42832;SDS011;64089;51.478;5.692;2022-12-11T08:09:04;22.15;;;8.43;;
42832;SDS011;64089;51.478;5.692;2022-12-11T08:11:31;20.42;;;7.68;;
42832;SDS011;64089;51.478;5.692;2022-12-11T08:13:57;21.10;;;8.15;;
42832;SDS011;64089;51.478;5.692;2022-12-11T08:16:23;24.65;;;8.75;;
42832;SDS011;64089;51.478;5.692;2022-12-11T08:18:49;19.63;;;8.80;;
42832;SDS011;64089;51.478;5.692;2022-12-11T08:21:17;22.05;;;7.78;;
42832;SDS011;64089;51.478;5.692;2022-12-11T08:23:45;22.23;;;8.73;;
42832;SDS011;64089;51.478;5.692;2022-12-11T08:26:12;22.77;;;8.63;;
42832;SDS011;64089;51.478;5.692;2022-12-11T08:28:43;26.03;;;9.30;;
42832;SDS011;64089;51.478;5.692;2022-12-11T08:31:09;25.58;;;8.98;;
42832;SDS011;64089;51.478;5.692;2022-12-11T08:33:36;19.80;;;8.90;;
42832;SDS011;64089;51.478;5.692;2022-12-11T08:36:04;24.25;;;9.18;;
42832;SDS011;64089;51.478;5.692;2022-12-11T08:38:31;24.55;;;9.95;;
42832;SDS011;64089;51.478;5.692;2022-12-11T08:40:57;27.17;;;10.23;;
42832;SDS011;64089;51.478;5.692;2022-12-11T08:43:23;29.48;;;9.63;;
42832;SDS011;64089;51.478;5.692;2022-12-11T08:45:48;27.35;;;8.85;;
42832;SDS011;64089;51.478;5.692;2022-12-11T08:48:14;23.98;;;8.23;;
42832;SDS011;64089;51.478;5.692;2022-12-11T08:50:40;23.38;;;9.20;;
42832;SDS011;64089;51.478;5.692;2022-12-11T08:53:06;26.08;;;9.68;;
42832;SDS011;64089;51.478;5.692;2022-12-11T08:55:32;17.98;;;8.10;;
42832;SDS011;64089;51.478;5.692;2022-12-11T08:57:58;22.25;;;9.45;;
42832;SDS011;64089;51.478;5.692;2022-12-11T09:00:23;18.33;;;8.10;;
42832;SDS011;64089;51.478;5.692;2022-12-11T09:02:49;20.33;;;8.68;;
42832;SDS011;64089;51.478;5.692;2022-12-11T09:05:15;21.90;;;9.07;;
42832;SDS011;64089;51.478;5.692;2022-12-11T09:07:41;20.73;;;9.07;;
42832;SDS011;64089;51.478;5.692;2022-12-11T09:10:07;21.52;;;8.38;;
42832;SDS011;64089;51.478;5.692;2022-12-11T09:12:34;16.15;;;7.85;;
42832;SDS011;64089;51.478;5.692;2022-12-11T09:15:00;19.63;;;8.73;;
42832;SDS011;64089;51.478;5.692;2022-12-11T09:17:26;17.48;;;8.45;;
42832;SDS011;64089;51.478;5.692;2022-12-11T09:19:52;17.88;;;8.35;;
42832;SDS011;64089;51.478;5.692;2022-12-11T09:22:17;19.90;;;7.75;;
42832;SDS011;64089;51.478;5.692;2022-12-11T09:24:43;22.00;;;7.95;;
42832;SDS011;64089;51.478;5.692;2022-12-11T09:27:10;22.67;;;9.52;;
42832;SDS011;64089;51.478;5.692;2022-12-11T09:29:35;20.38;;;8.07;;
42832;SDS011;64089;51.478;5.692;2022-12-11T09:32:02;25.10;;;8.80;;
42832;SDS011;64089;51.478;5.692;2022-12-11T09:34:28;19.38;;;8.30;;
42832;SDS011;64089;51.478;5.692;2022-12-11T09:36:54;18.52;;;8.32;;
42832;SDS011;64089;51.478;5.692;2022-12-11T09:39:20;20.33;;;8.68;;
42832;SDS011;64089;51.478;5.692;2022-12-11T09:46:57;20.08;;;8.68;;
42832;SDS011;64089;51.478;5.692;2022-12-11T09:51:57;18.80;;;8.63;;
42832;SDS011;64089;51.478;5.692;2022-12-11T09:54:30;24.00;;;8.68;;
42832;SDS011;64089;51.478;5.692;2022-12-11T10:02:23;22.50;;;8.30;;
42832;SDS011;64089;51.478;5.692;2022-12-11T10:07:51;17.00;;;7.85;;
42832;SDS011;64089;51.478;5.692;2022-12-11T10:11:14;19.73;;;8.90;;
42832;SDS011;64089;51.478;5.692;2022-12-11T10:16:02;19.73;;;8.40;;
42832;SDS011;64089;51.478;5.692;2022-12-11T10:18:36;24.75;;;7.82;;
42832;SDS011;64089;51.478;5.692;2022-12-11T10:21:03;25.40;;;9.25;;
42832;SDS011;64089;51.478;5.692;2022-12-11T10:23:31;21.58;;;7.88;;
42832;SDS011;64089;51.478;5.692;2022-12-11T10:26:06;18.77;;;8.13;;
42832;SDS011;64089;51.478;5.692;2022-12-11T10:28:37;19.80;;;7.35;;
42832;SDS011;64089;51.478;5.692;2022-12-11T10:33:44;17.98;;;7.78;;
42832;SDS011;64089;51.478;5.692;2022-12-11T10:36:25;24.77;;;7.85;;
42832;SDS011;64089;51.478;5.692;2022-12-11T10:38:53;22.55;;;8.35;;
42832;SDS011;64089;51.478;5.692;2022-12-11T10:41:20;14.95;;;7.38;;
42832;SDS011;64089;51.478;5.692;2022-12-11T10:43:49;20.13;;;6.88;;
42832;SDS011;64089;51.478;5.692;2022-12-11T10:48:45;15.23;;;6.80;;
42832;SDS011;64089;51.478;5.692;2022-12-11T10:51:14;23.60;;;7.47;;
42832;SDS011;64089;51.478;5.692;2022-12-11T10:53:40;18.23;;;8.00;;
42832;SDS011;64089;51.478;5.692;2022-12-11T10:56:07;22.17;;;8.98;;
42832;SDS011;64089;51.478;5.692;2022-12-11T10:58:33;23.33;;;8.57;;
42832;SDS011;64089;51.478;5.692;2022-12-11T11:01:14;17.83;;;7.80;;
42832;SDS011;64089;51.478;5.692;2022-12-11T11:06:28;21.75;;;8.82;;
42832;SDS011;64089;51.478;5.692;2022-12-11T11:08:59;146.90;;;52.92;;
42832;SDS011;64089;51.478;5.692;2022-12-11T11:11:33;53.83;;;21.45;;
42832;SDS011;64089;51.478;5.692;2022-12-11T11:14:18;59.35;;;17.77;;
42832;SDS011;64089;51.478;5.692;2022-12-11T11:16:46;105.00;;;33.30;;
42832;SDS011;64089;51.478;5.692;2022-12-11T11:21:57;16.65;;;7.55;;
42832;SDS011;64089;51.478;5.692;2022-12-11T11:24:26;23.20;;;8.50;;
42832;SDS011;64089;51.478;5.692;2022-12-11T11:26:55;19.75;;;7.57;;
42832;SDS011;64089;51.478;5.692;2022-12-11T11:29:24;19.58;;;7.93;;
42832;SDS011;64089;51.478;5.692;2022-12-11T11:31:56;22.60;;;8.75;;
42832;SDS011;64089;51.478;5.692;2022-12-11T11:34:26;24.95;;;9.07;;
42832;SDS011;64089;51.478;5.692;2022-12-11T11:36:56;19.73;;;8.93;;
42832;SDS011;64089;51.478;5.692;2022-12-11T11:41:59;156.10;;;63.35;;
42832;SDS011;64089;51.478;5.692;2022-12-11T11:44:51;224.05;;;89.78;;
42832;SDS011;64089;51.478;5.692;2022-12-11T11:50:19;33.47;;;13.80;;
42832;SDS011;64089;51.478;5.692;2022-12-11T11:53:01;26.13;;;8.02;;
42832;SDS011;64089;51.478;5.692;2022-12-11T11:55:41;19.67;;;8.55;;
42832;SDS011;64089;51.478;5.692;2022-12-11T11:58:19;21.23;;;8.70;;
42832;SDS011;64089;51.478;5.692;2022-12-11T12:00:49;20.75;;;8.70;;
42832;SDS011;64089;51.478;5.692;2022-12-11T12:03:20;21.75;;;8.60;;
42832;SDS011;64089;51.478;5.692;2022-12-11T12:08:54;22.55;;;9.18;;
42832;SDS011;64089;51.478;5.692;2022-12-11T12:14:12;19.88;;;8.13;;
42832;SDS011;64089;51.478;5.692;2022-12-11T12:17:04;20.77;;;8.32;;
42832;SDS011;64089;51.478;5.692;2022-12-11T12:22:01;23.52;;;10.07;;
42832;SDS011;64089;51.478;5.692;2022-12-11T12:24:54;33.22;;;9.02;;
42832;SDS011;64089;51.478;5.692;2022-12-11T12:30:13;20.05;;;8.77;;
42832;SDS011;64089;51.478;5.692;2022-12-11T12:35:35;22.45;;;9.43;;
42832;SDS011;64089;51.478;5.692;2022-12-11T12:40:50;19.65;;;8.15;;
42832;SDS011;64089;51.478;5.692;2022-12-11T12:43:57;19.85;;;8.70;;
42832;SDS011;64089;51.478;5.692;2022-12-11T12:49:27;20.17;;;8.98;;
42832;SDS011;64089;51.478;5.692;2022-12-11T12:51:58;19.52;;;8.30;;
42832;SDS011;64089;51.478;5.692;2022-12-11T12:54:25;22.05;;;9.48;;
42832;SDS011;64089;51.478;5.692;2022-12-11T12:56:53;18.02;;;8.45;;
42832;SDS011;64089;51.478;5.692;2022-12-11T12:59:23;19.40;;;9.02;;
42832;SDS011;64089;51.478;5.692;2022-12-11T13:01:54;24.15;;;9.77;;
42832;SDS011;64089;51.478;5.692;2022-12-11T13:04:36;17.35;;;8.32;;
42832;SDS011;64089;51.478;5.692;2022-12-11T13:07:18;19.85;;;9.07;;
42832;SDS011;64089;51.478;5.692;2022-12-11T13:09:58;18.42;;;8.70;;
42832;SDS011;64089;51.478;5.692;2022-12-11T13:12:30;18.42;;;7.93;;
42832;SDS011;64089;51.478;5.692;2022-12-11T13:17:57;16.88;;;8.23;;
42832;SDS011;64089;51.478;5.692;2022-12-11T13:20:25;23.45;;;9.82;;
42832;SDS011;64089;51.478;5.692;2022-12-11T13:25:51;19.75;;;9.38;;
42832;SDS011;64089;51.478;5.692;2022-12-11T13:28:30;21.75;;;7.88;;
42832;SDS011;64089;51.478;5.692;2022-12-11T13:33:49;21.70;;;9.25;;
42832;SDS011;64089;51.478;5.692;2022-12-11T13:39:01;25.65;;;10.73;;
42832;SDS011;64089;51.478;5.692;2022-12-11T13:41:31;28.02;;;11.43;;
42832;SDS011;64089;51.478;5.692;2022-12-11T13:44:00;27.98;;;10.55;;
42832;SDS011;64089;51.478;5.692;2022-12-11T13:46:29;21.75;;;10.27;;
42832;SDS011;64089;51.478;5.692;2022-12-11T13:49:00;24.38;;;9.05;;
42832;SDS011;64089;51.478;5.692;2022-12-11T13:51:29;20.80;;;9.57;;
42832;SDS011;64089;51.478;5.692;2022-12-11T13:57:02;28.70;;;11.35;;
42832;SDS011;64089;51.478;5.692;2022-12-11T13:59:33;21.63;;;10.43;;
42832;SDS011;64089;51.478;5.692;2022-12-11T14:02:13;23.27;;;10.60;;
42832;SDS011;64089;51.478;5.692;2022-12-11T14:04:39;19.20;;;10.02;;
42832;SDS011;64089;51.478;5.692;2022-12-11T14:07:06;17.35;;;9.48;;
42832;SDS011;64089;51.478;5.692;2022-12-11T14:09:33;28.02;;;9.90;;
42832;SDS011;64089;51.478;5.692;2022-12-11T14:12:04;19.30;;;9.02;;
42832;SDS011;64089;51.478;5.692;2022-12-11T14:14:41;20.95;;;7.97;;
42832;SDS011;64089;51.478;5.692;2022-12-11T14:17:14;21.23;;;9.05;;
42832;SDS011;64089;51.478;5.692;2022-12-11T14:19:46;27.35;;;9.68;;
42832;SDS011;64089;51.478;5.692;2022-12-11T14:22:16;25.23;;;11.20;;
42832;SDS011;64089;51.478;5.692;2022-12-11T14:24:48;28.77;;;11.98;;
42832;SDS011;64089;51.478;5.692;2022-12-11T14:27:21;25.80;;;12.60;;
42832;SDS011;64089;51.478;5.692;2022-12-11T14:29:47;23.73;;;10.15;;
42832;SDS011;64089;51.478;5.692;2022-12-11T14:32:25;20.67;;;8.27;;
42832;SDS011;64089;51.478;5.692;2022-12-11T14:35:01;19.58;;;7.93;;
42832;SDS011;64089;51.478;5.692;2022-12-11T14:37:30;19.42;;;8.18;;
42832;SDS011;64089;51.478;5.692;2022-12-11T14:42:39;14.07;;;6.80;;
42832;SDS011;64089;51.478;5.692;2022-12-11T14:45:20;16.48;;;7.03;;
42832;SDS011;64089;51.478;5.692;2022-12-11T14:47:47;15.32;;;7.50;;
42832;SDS011;64089;51.478;5.692;2022-12-11T14:52:45;15.82;;;6.50;;
42832;SDS011;64089;51.478;5.692;2022-12-11T14:57:46;15.10;;;7.20;;
42832;SDS011;64089;51.478;5.692;2022-12-11T15:05:22;13.82;;;6.80;;
42832;SDS011;64089;51.478;5.692;2022-12-11T15:08:24;14.13;;;6.28;;
42832;SDS011;64089;51.478;5.692;2022-12-11T15:16:24;104.55;;;46.17;;
42832;SDS011;64089;51.478;5.692;2022-12-11T15:18:52;58.35;;;23.30;;
42832;SDS011;64089;51.478;5.692;2022-12-11T15:21:27;17.75;;;10.00;;
42832;SDS011;64089;51.478;5.692;2022-12-11T15:23:56;17.60;;;8.13;;
42832;SDS011;64089;51.478;5.692;2022-12-11T15:29:01;19.45;;;7.57;;
42832;SDS011;64089;51.478;5.692;2022-12-11T15:31:30;17.27;;;7.93;;
42832;SDS011;64089;51.478;5.692;2022-12-11T15:34:01;16.67;;;9.77;;
42832;SDS011;64089;51.478;5.692;2022-12-11T15:36:31;18.05;;;8.43;;
42832;SDS011;64089;51.478;5.692;2022-12-11T15:38:57;19.98;;;8.85;;
42832;SDS011;64089;51.478;5.692;2022-12-11T15:41:23;19.60;;;8.18;;
42832;SDS011;64089;51.478;5.692;2022-12-11T15:43:49;15.30;;;8.38;;
42832;SDS011;64089;51.478;5.692;2022-12-11T15:46:20;19.73;;;8.57;;
42832;SDS011;64089;51.478;5.692;2022-12-11T15:48:46;23.40;;;9.77;;
42832;SDS011;64089;51.478;5.692;2022-12-11T15:51:13;19.35;;;9.38;;
42832;SDS011;64089;51.478;5.692;2022-12-11T15:53:39;19.20;;;9.52;;
42832;SDS011;64089;51.478;5.692;2022-12-11T15:56:04;20.30;;;8.85;;
42832;SDS011;64089;51.478;5.692;2022-12-11T15:58:31;19.95;;;9.40;;
42832;SDS011;64089;51.478;5.692;2022-12-11T16:00:57;19.58;;;9.85;;
42832;SDS011;64089;51.478;5.692;2022-12-11T16:03:23;17.63;;;8.52;;
42832;SDS011;64089;51.478;5.692;2022-12-11T16:05:50;18.65;;;8.43;;
42832;SDS011;64089;51.478;5.692;2022-12-11T16:08:18;21.00;;;10.32;;
42832;SDS011;64089;51.478;5.692;2022-12-11T16:10:46;19.80;;;9.05;;
42832;SDS011;64089;51.478;5.692;2022-12-11T16:13:12;18.63;;;8.60;;
42832;SDS011;64089;51.478;5.692;2022-12-11T16:15:42;22.95;;;8.75;;
42832;SDS011;64089;51.478;5.692;2022-12-11T16:18:11;19.75;;;9.65;;
42832;SDS011;64089;51.478;5.692;2022-12-11T16:20:38;20.27;;;9.82;;
42832;SDS011;64089;51.478;5.692;2022-12-11T16:23:05;18.10;;;8.48;;
42832;SDS011;64089;51.478;5.692;2022-12-11T16:25:31;18.73;;;8.65;;